createdAt,value
2022-09-27T00:01:19.245Z,20.26
2022-09-27T00:03:45.592Z,20.26
2022-09-27T00:06:11.819Z,20.25
2022-09-27T00:08:38.143Z,20.28
2022-09-27T00:11:05.493Z,20.26
2022-09-27T00:13:31.814Z,20.25
2022-09-27T00:16:01.762Z,20.25
2022-09-27T00:18:28.414Z,20.25
2022-09-27T00:20:54.764Z,20.25
2022-09-27T00:23:21.098Z,20.27
2022-09-27T00:25:56.987Z,20.26
2022-09-27T00:28:23.336Z,20.27
2022-09-27T00:30:49.736Z,20.27
2022-09-27T00:33:16.078Z,20.27
2022-09-27T00:35:42.421Z,20.28
2022-09-27T00:38:08.752Z,20.27
2022-09-27T00:40:35.193Z,20.27
2022-09-27T00:43:01.544Z,20.27
2022-09-27T00:45:27.983Z,20.26
2022-09-27T00:47:54.304Z,20.26
2022-09-27T00:50:25.169Z,20.25
2022-09-27T00:52:55.312Z,20.25
2022-09-27T00:55:25.898Z,20.27
2022-09-27T00:57:52.243Z,20.26
2022-09-27T01:00:18.574Z,20.24
2022-09-27T01:02:46.147Z,20.25
2022-09-27T01:05:12.526Z,20.24
2022-09-27T01:07:38.840Z,20.26
2022-09-27T01:10:05.292Z,20.25
2022-09-27T01:12:34.266Z,20.25
2022-09-27T01:15:19.486Z,20.26
2022-09-27T01:17:52.133Z,20.23
2022-09-27T01:20:29.155Z,20.23
2022-09-27T01:23:01.610Z,20.25
2022-09-27T01:25:33.666Z,20.25
2022-09-27T01:28:20.007Z,20.25
2022-09-27T01:30:58.848Z,20.25
2022-09-27T01:33:37.270Z,20.25
2022-09-27T01:36:21.701Z,20.24
2022-09-27T01:38:56.235Z,20.24
2022-09-27T01:41:26.752Z,20.23
2022-09-27T01:44:22.896Z,20.22
2022-09-27T01:46:54.867Z,20.23
2022-09-27T01:49:54.278Z,20.24
2022-09-27T01:52:22.130Z,20.24
2022-09-27T01:54:50.599Z,20.23
2022-09-27T01:57:36.478Z,20.22
2022-09-27T02:00:08.914Z,20.23
2022-09-27T02:02:45.118Z,20.25
2022-09-27T02:05:43.038Z,20.25
2022-09-27T02:08:42.507Z,20.24
2022-09-27T02:11:18.840Z,20.26
2022-09-27T02:13:54.478Z,20.24
2022-09-27T02:16:50.824Z,20.24
2022-09-27T02:19:39.523Z,20.25
2022-09-27T02:22:24.766Z,20.25
2022-09-27T02:24:53.868Z,20.22
2022-09-27T02:27:40.430Z,20.24
2022-09-27T02:30:11.920Z,20.25
2022-09-27T02:32:39.627Z,20.24
2022-09-27T02:35:13.919Z,20.23
2022-09-27T02:37:40.562Z,20.23
2022-09-27T02:40:07.240Z,20.25
2022-09-27T02:42:33.742Z,20.24
2022-09-27T02:45:00.231Z,20.24
2022-09-27T02:47:29.156Z,20.27
2022-09-27T02:50:08.023Z,20.28
2022-09-27T02:53:00.579Z,20.28
2022-09-27T02:55:41.546Z,20.30
2022-09-27T02:58:38.962Z,20.33
2022-09-27T03:01:18.999Z,20.36
2022-09-27T03:04:04.525Z,20.36
2022-09-27T03:06:30.881Z,20.35
2022-09-27T03:08:57.208Z,20.39
2022-09-27T03:11:23.700Z,20.40
2022-09-27T03:14:07.919Z,20.39
2022-09-27T03:16:37.712Z,20.38
2022-09-27T03:19:13.421Z,20.40
2022-09-27T03:22:05.808Z,20.39
2022-09-27T03:24:32.183Z,20.40
2022-09-27T03:26:58.789Z,20.39
2022-09-27T03:29:25.148Z,20.39
2022-09-27T03:32:00.120Z,20.36
2022-09-27T03:34:41.141Z,20.38
2022-09-27T03:37:08.294Z,20.40
2022-09-27T03:39:34.649Z,20.43
2022-09-27T03:42:01.020Z,20.44
2022-09-27T03:44:27.378Z,20.46
2022-09-27T03:46:53.867Z,20.45
2022-09-27T03:49:20.214Z,20.46
2022-09-27T03:51:46.562Z,20.48
2022-09-27T03:54:12.901Z,20.49
2022-09-27T03:56:39.227Z,20.47
2022-09-27T03:59:05.725Z,20.49
2022-09-27T04:01:52.092Z,20.49
2022-09-27T04:04:38.426Z,20.46
2022-09-27T04:07:04.766Z,20.46
2022-09-27T04:09:31.158Z,20.45
2022-09-27T04:12:00.369Z,20.43
2022-09-27T04:14:26.702Z,20.44
2022-09-27T04:17:25.723Z,20.43
2022-09-27T04:20:10.808Z,20.45
2022-09-27T04:22:40.262Z,20.46
2022-09-27T04:25:06.943Z,20.45
2022-09-27T04:27:37.642Z,20.44
2022-09-27T04:30:04.110Z,20.44
2022-09-27T04:32:52.273Z,20.42
2022-09-27T04:35:55.705Z,20.50
2022-09-27T04:38:23.949Z,20.59
2022-09-27T04:40:50.872Z,20.61
2022-09-27T04:43:17.448Z,20.64
2022-09-27T04:45:44.126Z,20.60
2022-09-27T04:48:10.567Z,20.59
2022-09-27T04:50:39.750Z,20.57
2022-09-27T04:53:06.379Z,20.61
2022-09-27T04:55:32.855Z,20.57
2022-09-27T04:58:01.611Z,19.27
2022-09-27T05:00:29.104Z,18.73
2022-09-27T05:03:03.864Z,19.07
2022-09-27T05:05:41.197Z,18.93
2022-09-27T05:08:07.711Z,18.74
2022-09-27T05:10:53.548Z,18.45
2022-09-27T05:13:20.240Z,18.27
2022-09-27T05:15:46.592Z,18.11
2022-09-27T05:18:39.079Z,18.15
2022-09-27T05:21:31.890Z,19.06
2022-09-27T05:23:58.580Z,19.49
2022-09-27T05:26:25.019Z,19.66
2022-09-27T05:28:51.427Z,19.72
2022-09-27T05:31:17.940Z,19.83
2022-09-27T05:33:44.370Z,19.93
2022-09-27T05:36:31.093Z,19.98
2022-09-27T05:38:57.502Z,20.02
2022-09-27T05:41:25.600Z,20.04
2022-09-27T05:43:52.634Z,20.08
2022-09-27T05:46:18.974Z,20.08
2022-09-27T05:48:47.360Z,20.09
2022-09-27T05:51:14.332Z,20.12
2022-09-27T05:53:40.763Z,20.22
2022-09-27T05:56:13.962Z,20.21
2022-09-27T05:59:09.618Z,20.25
2022-09-27T06:01:55.964Z,20.21
2022-09-27T06:04:40.807Z,20.22
2022-09-27T06:07:30.924Z,20.21
2022-09-27T06:09:57.397Z,20.23
2022-09-27T06:12:23.727Z,20.24
2022-09-27T06:14:50.077Z,20.26
2022-09-27T06:17:28.961Z,20.25
2022-09-27T06:19:55.505Z,20.26
2022-09-27T06:22:23.379Z,20.29
2022-09-27T06:24:58.190Z,20.31
2022-09-27T06:27:27.433Z,20.31
2022-09-27T06:29:58.757Z,20.32
2022-09-27T06:32:37.952Z,20.33
2022-09-27T06:35:31.068Z,20.34
2022-09-27T06:37:57.673Z,20.36
2022-09-27T06:40:27.317Z,20.36
2022-09-27T06:43:13.455Z,20.38
2022-09-27T06:46:05.756Z,20.37
2022-09-27T06:48:52.920Z,20.37
2022-09-27T06:51:20.192Z,20.35
2022-09-27T06:53:48.497Z,20.38
2022-09-27T06:56:14.899Z,20.40
2022-09-27T06:59:05.896Z,20.40
2022-09-27T07:01:41.269Z,20.42
2022-09-27T07:04:26.194Z,20.44
2022-09-27T07:07:10.189Z,20.45
2022-09-27T07:09:40.624Z,20.45
2022-09-27T07:12:07.249Z,20.46
2022-09-27T07:14:34.654Z,20.46
2022-09-27T07:17:01.847Z,20.48
2022-09-27T07:19:33.391Z,20.48
2022-09-27T07:21:59.760Z,20.48
2022-09-27T07:24:26.123Z,20.48
2022-09-27T07:26:52.580Z,20.48
2022-09-27T07:29:20.946Z,20.49
2022-09-27T07:31:48.879Z,20.49
2022-09-27T07:34:18.208Z,20.49
2022-09-27T07:36:44.840Z,20.49
2022-09-27T07:39:11.775Z,20.49
2022-09-27T07:41:40.334Z,20.49
2022-09-27T07:44:08.107Z,20.49
2022-09-27T07:46:42.494Z,20.49
2022-09-27T07:49:21.248Z,20.49
2022-09-27T07:52:00.997Z,20.49
2022-09-27T07:54:41.220Z,20.49
2022-09-27T07:57:26.209Z,20.50
2022-09-27T07:59:54.224Z,20.50
2022-09-27T08:02:22.578Z,20.50
2022-09-27T08:04:50.565Z,20.50
2022-09-27T08:07:17.556Z,20.50
2022-09-27T08:09:47.499Z,20.51
2022-09-27T08:12:13.880Z,20.51
2022-09-27T08:14:45.017Z,20.51
2022-09-27T08:17:14.445Z,20.53
2022-09-27T08:20:00.231Z,20.53
2022-09-27T08:22:42.709Z,20.53
2022-09-27T08:25:24.350Z,20.51
2022-09-27T08:28:09.693Z,20.51
2022-09-27T08:30:42.754Z,20.51
2022-09-27T08:33:09.110Z,20.51
2022-09-27T08:35:35.475Z,20.51
2022-09-27T08:38:02.484Z,20.52
2022-09-27T08:40:46.674Z,20.51
2022-09-27T08:43:19.446Z,20.53
2022-09-27T08:45:52.109Z,20.49
2022-09-27T08:48:19.477Z,20.22
2022-09-27T08:50:45.924Z,19.96
2022-09-27T08:53:13.577Z,19.23
2022-09-27T08:55:44.757Z,19.45
2022-09-27T08:58:16.244Z,19.50
2022-09-27T09:00:43.393Z,19.16
2022-09-27T09:03:16.305Z,19.23
2022-09-27T09:05:44.075Z,18.92
2022-09-27T09:08:26.074Z,19.07
2022-09-27T09:11:18.487Z,18.65
2022-09-27T09:13:51.241Z,18.46
2022-09-27T09:16:21.059Z,18.46
2022-09-27T09:18:57.424Z,18.57
2022-09-27T09:21:51.925Z,18.89
2022-09-27T09:24:21.627Z,19.49
2022-09-27T09:26:57.954Z,19.70
2022-09-27T09:29:28.109Z,19.94
2022-09-27T09:31:58.454Z,19.91
2022-09-27T09:34:28.568Z,19.80
2022-09-27T09:37:00.117Z,19.84
2022-09-27T09:39:28.098Z,19.48
2022-09-27T09:42:01.604Z,19.77
2022-09-27T09:44:28.820Z,20.00
2022-09-27T09:47:01.273Z,20.08
2022-09-27T09:49:28.978Z,20.15
2022-09-27T09:52:11.163Z,20.18
2022-09-27T09:54:39.940Z,20.23
2022-09-27T09:57:15.457Z,20.23
2022-09-27T09:59:48.079Z,20.27
2022-09-27T10:02:20.636Z,20.29
2022-09-27T10:04:47.123Z,20.33
2022-09-27T10:07:13.458Z,20.35
2022-09-27T10:09:39.838Z,20.37
2022-09-27T10:12:44.219Z,20.38
2022-09-27T10:15:14.006Z,20.39
2022-09-27T10:17:41.541Z,20.41
2022-09-27T10:20:16.729Z,20.41
2022-09-27T10:22:45.237Z,20.45
2022-09-27T10:25:24.504Z,20.52
2022-09-27T10:28:00.072Z,20.48
2022-09-27T10:30:34.104Z,20.84
2022-09-27T10:33:17.304Z,21.28
2022-09-27T10:35:45.743Z,21.46
2022-09-27T10:38:32.494Z,21.51
2022-09-27T10:41:16.411Z,21.52
2022-09-27T10:43:43.094Z,21.49
2022-09-27T10:46:26.155Z,21.51
2022-09-27T10:49:07.961Z,21.70
2022-09-27T10:51:34.324Z,21.64
2022-09-27T10:54:01.573Z,21.56
2022-09-27T10:56:31.564Z,21.60
2022-09-27T10:58:59.928Z,21.59
2022-09-27T11:01:27.615Z,21.62
2022-09-27T11:04:21.431Z,21.70
2022-09-27T11:06:48.369Z,21.78
2022-09-27T11:09:24.293Z,21.78
2022-09-27T11:12:05.361Z,21.75
2022-09-27T11:14:32.950Z,21.79
2022-09-27T11:17:09.994Z,21.59
2022-09-27T11:19:43.471Z,21.82
2022-09-27T11:22:28.582Z,21.86
2022-09-27T11:25:12.759Z,21.82
2022-09-27T11:27:51.561Z,21.70
2022-09-27T11:30:22.137Z,21.69
2022-09-27T11:33:14.957Z,21.67
2022-09-27T11:35:50.665Z,21.94
2022-09-27T11:38:41.201Z,22.05
2022-09-27T11:41:40.154Z,22.08
2022-09-27T11:44:12.863Z,22.08
2022-09-27T11:46:41.895Z,22.09
2022-09-27T11:49:10.727Z,22.14
2022-09-27T11:51:57.035Z,22.18
2022-09-27T11:54:26.635Z,22.13
2022-09-27T11:57:00.645Z,22.15
2022-09-27T11:59:49.301Z,22.14
2022-09-27T12:02:24.816Z,22.35
2022-09-27T12:04:56.335Z,22.53
2022-09-27T12:07:37.294Z,22.54
2022-09-27T12:10:05.180Z,22.50
2022-09-27T12:12:34.400Z,22.50
2022-09-27T12:15:06.735Z,22.48
2022-09-27T12:17:35.888Z,22.46
2022-09-27T12:20:03.616Z,22.52
2022-09-27T12:22:59.660Z,22.84
2022-09-27T12:25:38.253Z,22.93
2022-09-27T12:28:33.274Z,22.73
2022-09-27T12:31:27.405Z,22.62
2022-09-27T12:33:51.646Z,22.43
2022-09-27T12:36:19.327Z,22.26
2022-09-27T12:39:02.161Z,22.28
2022-09-27T12:41:31.889Z,22.11
2022-09-27T12:44:16.067Z,22.23
2022-09-27T12:47:08.582Z,22.27
2022-09-27T12:50:01.006Z,22.16
2022-09-27T12:52:28.729Z,22.16
2022-09-27T12:55:11.109Z,21.70
2022-09-27T12:57:42.104Z,21.88
2022-09-27T13:00:10.298Z,21.93
2022-09-27T13:03:14.848Z,22.09
2022-09-27T13:05:49.190Z,22.18
2022-09-27T13:08:34.671Z,22.17
2022-09-27T13:11:07.869Z,22.13
2022-09-27T13:13:36.705Z,22.09
2022-09-27T13:16:05.046Z,21.97
2022-09-27T13:18:36.066Z,22.09
2022-09-27T13:21:04.214Z,22.12
2022-09-27T13:23:41.680Z,22.00
2022-09-27T13:26:42.186Z,21.67
2022-09-27T13:29:22.272Z,21.83
2022-09-27T13:31:57.914Z,21.89
2022-09-27T13:34:51.840Z,21.87
2022-09-27T13:37:24.049Z,21.79
2022-09-27T13:39:50.403Z,21.78
2022-09-27T13:42:35.302Z,21.75
2022-09-27T13:45:13.782Z,21.83
2022-09-27T13:47:41.331Z,22.00
2022-09-27T13:50:25.140Z,22.06
2022-09-27T13:53:06.105Z,22.09
2022-09-27T13:55:42.806Z,22.07
2022-09-27T13:58:19.555Z,22.06
2022-09-27T14:00:50.670Z,22.00
2022-09-27T14:03:22.838Z,21.91
2022-09-27T14:05:56.953Z,22.09
2022-09-27T14:08:29.427Z,21.96
2022-09-27T14:10:55.919Z,22.00
2022-09-27T14:13:22.624Z,21.99
2022-09-27T14:15:58.965Z,22.02
2022-09-27T14:18:25.444Z,22.01
2022-09-27T14:20:52.199Z,22.02
2022-09-27T14:23:38.510Z,22.07
2022-09-27T14:26:05.727Z,22.07
2022-09-27T14:28:40.303Z,22.09
2022-09-27T14:31:17.585Z,22.07
2022-09-27T14:34:16.454Z,22.07
2022-09-27T14:37:07.246Z,22.04
2022-09-27T14:39:45.862Z,21.88
2022-09-27T14:42:28.524Z,21.84
2022-09-27T14:44:55.941Z,21.92
2022-09-27T14:47:23.089Z,21.99
2022-09-27T14:49:50.079Z,21.93
2022-09-27T14:52:17.753Z,21.94
2022-09-27T14:54:46.769Z,21.93
2022-09-27T14:57:13.251Z,21.85
2022-09-27T14:59:44.471Z,21.91
2022-09-27T15:02:16.123Z,21.73
2022-09-27T15:04:43.800Z,21.69
2022-09-27T15:07:10.146Z,21.90
2022-09-27T15:09:36.894Z,22.05
2022-09-27T15:12:05.119Z,22.07
2022-09-27T15:14:33.274Z,21.97
2022-09-27T15:17:05.885Z,21.79
2022-09-27T15:19:33.191Z,21.91
2022-09-27T15:22:18.271Z,21.92
2022-09-27T15:24:45.226Z,22.05
2022-09-27T15:27:22.054Z,21.98
2022-09-27T15:29:51.756Z,21.84
2022-09-27T15:32:18.614Z,21.83
2022-09-27T15:34:45.087Z,21.83
2022-09-27T15:37:24.940Z,21.77
2022-09-27T15:39:51.305Z,21.78
2022-09-27T15:42:19.481Z,21.90
2022-09-27T15:44:46.541Z,21.91
2022-09-27T15:47:31.906Z,21.69
2022-09-27T15:50:24.675Z,21.77
2022-09-27T15:52:51.719Z,21.74
2022-09-27T15:55:19.301Z,21.80
2022-09-27T15:57:46.165Z,21.75
2022-09-27T16:00:13.221Z,21.50
2022-09-27T16:02:39.540Z,21.45
2022-09-27T16:05:06.002Z,21.52
2022-09-27T16:07:32.361Z,21.56
2022-09-27T16:09:58.666Z,21.67
2022-09-27T16:12:25.311Z,21.66
2022-09-27T16:14:51.655Z,21.71
2022-09-27T16:17:17.975Z,21.64
2022-09-27T16:19:44.273Z,21.68
2022-09-27T16:22:10.667Z,21.67
2022-09-27T16:24:37.058Z,21.74
2022-09-27T16:27:03.882Z,21.85
2022-09-27T16:29:30.309Z,21.71
2022-09-27T16:31:57.029Z,21.66
2022-09-27T16:34:23.397Z,21.61
2022-09-27T16:36:49.907Z,21.68
2022-09-27T16:39:16.301Z,21.67
2022-09-27T16:41:43.485Z,21.69
2022-09-27T16:44:10.857Z,21.62
2022-09-27T16:46:40.433Z,21.53
2022-09-27T16:49:26.914Z,21.51
2022-09-27T16:52:02.462Z,21.50
2022-09-27T16:54:29.251Z,21.45
2022-09-27T16:56:56.045Z,21.45
2022-09-27T16:59:24.680Z,21.46
2022-09-27T17:01:51.259Z,21.45
2022-09-27T17:04:17.712Z,21.43
2022-09-27T17:06:44.162Z,21.40
2022-09-27T17:09:12.022Z,21.39
2022-09-27T17:11:38.397Z,21.38
2022-09-27T17:14:04.730Z,21.37
2022-09-27T17:16:31.120Z,21.25
2022-09-27T17:18:57.453Z,21.31
2022-09-27T17:21:23.814Z,21.51
2022-09-27T17:23:50.167Z,21.63
2022-09-27T17:26:17.785Z,21.48
2022-09-27T17:28:44.167Z,21.41
2022-09-27T17:31:10.971Z,21.39
2022-09-27T17:33:44.394Z,21.26
2022-09-27T17:36:12.142Z,21.23
2022-09-27T17:38:38.691Z,21.30
2022-09-27T17:41:05.874Z,21.33
2022-09-27T17:43:34.020Z,21.37
2022-09-27T17:46:03.883Z,21.36
2022-09-27T17:48:48.991Z,21.29
2022-09-27T17:51:15.377Z,21.48
2022-09-27T17:53:41.748Z,21.59
2022-09-27T17:56:08.074Z,21.54
2022-09-27T17:58:34.375Z,21.51
2022-09-27T18:01:04.245Z,21.71
2022-09-27T18:03:30.918Z,21.78
2022-09-27T18:05:58.161Z,21.81
2022-09-27T18:08:30.372Z,21.25
2022-09-27T18:10:56.753Z,20.86
2022-09-27T18:13:23.068Z,21.30
2022-09-27T18:15:58.407Z,21.39
2022-09-27T18:18:25.071Z,21.56
2022-09-27T18:20:51.405Z,21.67
2022-09-27T18:23:17.702Z,21.70
2022-09-27T18:25:45.026Z,21.68
2022-09-27T18:28:12.253Z,21.70
2022-09-27T18:30:38.627Z,21.67
2022-09-27T18:33:04.942Z,21.79
2022-09-27T18:35:31.327Z,21.77
2022-09-27T18:37:57.638Z,21.84
2022-09-27T18:40:44.446Z,21.91
2022-09-27T18:43:10.257Z,21.92
2022-09-27T18:45:37.930Z,21.88
2022-09-27T18:48:05.135Z,21.79
2022-09-27T18:50:34.702Z,21.78
2022-09-27T18:53:01.049Z,21.77
2022-09-27T18:55:28.386Z,21.80
2022-09-27T18:57:54.712Z,21.78
2022-09-27T19:00:21.357Z,21.77
2022-09-27T19:02:50.334Z,21.80
2022-09-27T19:05:16.695Z,21.78
2022-09-27T19:07:43.005Z,21.82
2022-09-27T19:10:10.340Z,21.77
2022-09-27T19:12:36.674Z,21.82
2022-09-27T19:15:03.027Z,21.93
2022-09-27T19:17:29.359Z,21.94
2022-09-27T19:19:55.669Z,21.98
2022-09-27T19:22:23.197Z,22.01
2022-09-27T19:24:49.514Z,22.03
2022-09-27T19:27:15.817Z,21.99
2022-09-27T19:29:42.129Z,21.96
2022-09-27T19:32:08.433Z,21.73
2022-09-27T19:34:34.744Z,21.66
2022-09-27T19:37:01.049Z,21.67
2022-09-27T19:39:27.370Z,21.50
2022-09-27T19:41:53.711Z,21.63
2022-09-27T19:44:20.038Z,21.84
2022-09-27T19:46:46.456Z,21.95
2022-09-27T19:49:12.817Z,22.03
2022-09-27T19:51:39.154Z,22.04
2022-09-27T19:54:05.523Z,21.95
2022-09-27T19:56:32.318Z,21.99
2022-09-27T19:58:58.663Z,21.94
2022-09-27T20:01:25.143Z,21.95
2022-09-27T20:03:51.874Z,21.95
2022-09-27T20:06:18.954Z,21.99
2022-09-27T20:08:45.345Z,21.98
2022-09-27T20:11:12.491Z,21.99
2022-09-27T20:13:38.802Z,22.03
2022-09-27T20:16:09.277Z,22.06
2022-09-27T20:18:38.465Z,22.09
2022-09-27T20:21:04.862Z,22.10
2022-09-27T20:23:31.531Z,22.08
2022-09-27T20:26:01.463Z,22.07
2022-09-27T20:28:27.947Z,22.20
2022-09-27T20:30:57.994Z,22.07
2022-09-27T20:33:42.511Z,21.58
2022-09-27T20:36:09.637Z,21.41
2022-09-27T20:38:35.953Z,21.28
2022-09-27T20:41:02.301Z,21.22
2022-09-27T20:43:28.641Z,21.26
2022-09-27T20:45:59.450Z,21.24
2022-09-27T20:48:25.809Z,21.19
2022-09-27T20:50:56.611Z,21.19
2022-09-27T20:53:23.274Z,21.16
2022-09-27T20:55:50.723Z,21.15
2022-09-27T20:58:17.043Z,21.12
2022-09-27T21:00:43.619Z,21.07
2022-09-27T21:03:09.964Z,21.05
2022-09-27T21:05:36.310Z,21.01
2022-09-27T21:08:02.638Z,21.02
2022-09-27T21:10:28.972Z,20.99
2022-09-27T21:12:55.344Z,21.00
2022-09-27T21:15:21.648Z,20.98
2022-09-27T21:17:48.029Z,20.95
2022-09-27T21:20:14.340Z,20.96
2022-09-27T21:22:40.704Z,20.96
2022-09-27T21:25:07.198Z,20.93
2022-09-27T21:27:33.526Z,20.91
2022-09-27T21:30:01.082Z,20.90
2022-09-27T21:32:27.642Z,20.88
2022-09-27T21:34:55.594Z,20.88
2022-09-27T21:37:22.418Z,20.82
2022-09-27T21:39:49.740Z,20.83
2022-09-27T21:42:16.125Z,20.83
2022-09-27T21:44:42.437Z,20.86
2022-09-27T21:47:08.851Z,20.84
2022-09-27T21:49:35.276Z,20.80
2022-09-27T21:52:01.585Z,20.80
2022-09-27T21:54:27.914Z,20.80
2022-09-27T21:56:54.224Z,20.79
2022-09-27T21:59:20.535Z,20.79
2022-09-27T22:01:46.951Z,20.79
2022-09-27T22:04:13.304Z,20.78
2022-09-27T22:06:39.610Z,20.75
2022-09-27T22:09:06.837Z,20.73
2022-09-27T22:11:34.126Z,20.73
2022-09-27T22:14:00.561Z,20.76
2022-09-27T22:16:27.088Z,20.76
2022-09-27T22:18:53.946Z,20.71
2022-09-27T22:21:21.338Z,20.71
2022-09-27T22:23:47.701Z,20.72
2022-09-27T22:26:14.797Z,20.65
2022-09-27T22:28:41.373Z,20.66
2022-09-27T22:31:08.259Z,20.64
2022-09-27T22:33:34.661Z,20.56
2022-09-27T22:36:01.006Z,20.54
2022-09-27T22:38:27.325Z,20.56
2022-09-27T22:40:54.524Z,20.54
2022-09-27T22:43:20.904Z,20.51
2022-09-27T22:45:47.223Z,20.49
2022-09-27T22:48:13.560Z,20.49
2022-09-27T22:50:39.870Z,20.47
2022-09-27T22:53:06.670Z,20.45
2022-09-27T22:55:33.013Z,20.45
2022-09-27T22:57:59.344Z,20.42
2022-09-27T23:00:26.029Z,20.40
2022-09-27T23:02:55.562Z,20.39
2022-09-27T23:05:21.881Z,20.38
2022-09-27T23:07:48.811Z,20.38
2022-09-27T23:10:15.139Z,20.37
2022-09-27T23:12:41.456Z,20.35
2022-09-27T23:15:08.063Z,20.34
2022-09-27T23:17:34.379Z,20.32
2022-09-27T23:20:02.122Z,20.30
2022-09-27T23:22:28.663Z,20.31
2022-09-27T23:24:54.990Z,20.29
2022-09-27T23:27:39.811Z,20.30
2022-09-27T23:30:06.171Z,20.27
2022-09-27T23:32:32.550Z,20.28
2022-09-27T23:34:58.861Z,20.24
2022-09-27T23:37:25.191Z,20.26
2022-09-27T23:39:51.618Z,20.24
2022-09-27T23:42:17.959Z,20.24
2022-09-27T23:44:44.296Z,20.22
2022-09-27T23:47:10.609Z,20.23
2022-09-27T23:49:37.026Z,20.21
2022-09-27T23:52:03.742Z,20.21
2022-09-27T23:54:30.782Z,20.19
2022-09-27T23:56:57.125Z,20.20
2022-09-27T23:59:25.150Z,20.18
